Time;durP1;ratioP1;P1;durP2;ratioP2;P2;SDS_P1;SDS_P2;PMS_P1;PMS_P2;Temp;Humidity;BMP_temperature;BMP_pressure;BME280_temperature;BME280_humidity;BME280_pressure;Samples;Min_cycle;Max_cycle;Signal;HPM_P1;HPM_P2
2019/09/27 00:00:32;;;;;;;1.9;1;;;;;;;;;;;;;
2019/09/27 00:02:56;;;;;;;1.2;0.9;;;;;;;;;;;;;
2019/09/27 00:05:21;;;;;;;3.3;1;;;;;;;;;;;;;
2019/09/27 00:07:46;;;;;;;4;1.1;;;;;;;;;;;;;
2019/09/27 00:10:12;;;;;;;3.9;1.2;;;;;;;;;;;;;
2019/09/27 00:12:36;;;;;;;2.7;1.1;;;;;;;;;;;;;
2019/09/27 00:15:02;;;;;;;4.5;1.2;;;;;;;;;;;;;
2019/09/27 00:17:27;;;;;;;2.3;0.9;;;;;;;;;;;;;
2019/09/27 00:19:52;;;;;;;1.9;1;;;;;;;;;;;;;
2019/09/27 00:22:17;;;;;;;1.3;0.9;;;;;;;;;;;;;
2019/09/27 00:24:42;;;;;;;3.2;1.2;;;;;;;;;;;;;
2019/09/27 00:27:07;;;;;;;2.5;1;;;;;;;;;;;;;
2019/09/27 00:29:32;;;;;;;2.4;1.1;;;;;;;;;;;;;
2019/09/27 00:31:57;;;;;;;3.9;1.2;;;;;;;;;;;;;
2019/09/27 00:34:22;;;;;;;4.6;1.4;;;;;;;;;;;;;
2019/09/27 00:36:47;;;;;;;4.7;1.3;;;;;;;;;;;;;
2019/09/27 00:39:13;;;;;;;4.5;1.3;;;;;;;;;;;;;
2019/09/27 00:41:38;;;;;;;3.1;1.2;;;;;;;;;;;;;
2019/09/27 00:44:03;;;;;;;3.8;1.2;;;;;;;;;;;;;
2019/09/27 00:46:28;;;;;;;5.2;1.4;;;;;;;;;;;;;
2019/09/27 00:48:53;;;;;;;3;1;;;;;;;;;;;;;
2019/09/27 00:51:18;;;;;;;4.2;1.3;;;;;;;;;;;;;
2019/09/27 00:53:43;;;;;;;2.7;1.4;;;;;;;;;;;;;
2019/09/27 00:56:08;;;;;;;4.4;1.5;;;;;;;;;;;;;
2019/09/27 00:58:33;;;;;;;4.8;1.4;;;;;;;;;;;;;
2019/09/27 01:00:58;;;;;;;3.2;1.4;;;;;;;;;;;;;
2019/09/27 01:03:23;;;;;;;3.5;1.4;;;;;;;;;;;;;
2019/09/27 01:05:48;;;;;;;5.1;1.6;;;;;;;;;;;;;
2019/09/27 01:08:14;;;;;;;3.4;1.5;;;;;;;;;;;;;
2019/09/27 01:10:39;;;;;;;4.2;1.5;;;;;;;;;;;;;
2019/09/27 01:13:04;;;;;;;4.2;1.6;;;;;;;;;;;;;
2019/09/27 01:15:29;;;;;;;4.2;1.6;;;;;;;;;;;;;
2019/09/27 01:17:54;;;;;;;3.9;1.4;;;;;;;;;;;;;
2019/09/27 01:20:19;;;;;;;4.9;1.8;;;;;;;;;;;;;
2019/09/27 01:22:44;;;;;;;5.1;1.6;;;;;;;;;;;;;
2019/09/27 01:25:09;;;;;;;3.3;1.6;;;;;;;;;;;;;
2019/09/27 01:27:34;;;;;;;5.4;1.8;;;;;;;;;;;;;
2019/09/27 01:29:59;;;;;;;4.3;1.7;;;;;;;;;;;;;
2019/09/27 01:32:25;;;;;;;4.8;1.8;;;;;;;;;;;;;
2019/09/27 01:34:50;;;;;;;5.5;1.9;;;;;;;;;;;;;
2019/09/27 01:37:15;;;;;;;6.2;1.7;;;;;;;;;;;;;
2019/09/27 01:39:40;;;;;;;5.9;2.2;;;;;;;;;;;;;
2019/09/27 01:42:05;;;;;;;6.1;1.9;;;;;;;;;;;;;
2019/09/27 01:44:30;;;;;;;6;1.8;;;;;;;;;;;;;
2019/09/27 01:46:55;;;;;;;4.8;2.1;;;;;;;;;;;;;
2019/09/27 01:49:20;;;;;;;5.8;2;;;;;;;;;;;;;
2019/09/27 01:51:45;;;;;;;5.4;2;;;;;;;;;;;;;
2019/09/27 01:54:11;;;;;;;6.3;1.9;;;;;;;;;;;;;
2019/09/27 01:56:36;;;;;;;6;2;;;;;;;;;;;;;
2019/09/27 01:59:01;;;;;;;3.6;1.7;;;;;;;;;;;;;
2019/09/27 02:01:26;;;;;;;5.3;2.1;;;;;;;;;;;;;
2019/09/27 02:03:51;;;;;;;7.9;2.1;;;;;;;;;;;;;
2019/09/27 02:06:16;;;;;;;6.3;2.1;;;;;;;;;;;;;
2019/09/27 02:08:41;;;;;;;6.5;2.1;;;;;;;;;;;;;
2019/09/27 02:11:06;;;;;;;5;2;;;;;;;;;;;;;
2019/09/27 02:13:31;;;;;;;6.1;2.2;;;;;;;;;;;;;
2019/09/27 02:15:56;;;;;;;6.3;2.1;;;;;;;;;;;;;
2019/09/27 02:18:21;;;;;;;6;2.3;;;;;;;;;;;;;
2019/09/27 02:20:47;;;;;;;4.8;1.8;;;;;;;;;;;;;
2019/09/27 02:23:12;;;;;;;6.9;2.4;;;;;;;;;;;;;
2019/09/27 02:25:37;;;;;;;5.5;1.9;;;;;;;;;;;;;
2019/09/27 02:28:02;;;;;;;6.2;2.2;;;;;;;;;;;;;
2019/09/27 02:30:27;;;;;;;5;1.9;;;;;;;;;;;;;
2019/09/27 02:32:52;;;;;;;6.6;2.3;;;;;;;;;;;;;
2019/09/27 02:35:17;;;;;;;5.9;2;;;;;;;;;;;;;
2019/09/27 02:37:42;;;;;;;5.7;2.2;;;;;;;;;;;;;
2019/09/27 02:40:07;;;;;;;6;2.1;;;;;;;;;;;;;
2019/09/27 02:42:32;;;;;;;5.1;2;;;;;;;;;;;;;
2019/09/27 02:44:58;;;;;;;7.1;2;;;;;;;;;;;;;
2019/09/27 02:47:23;;;;;;;4.4;1.9;;;;;;;;;;;;;
2019/09/27 02:49:48;;;;;;;5.8;2.3;;;;;;;;;;;;;
2019/09/27 02:52:13;;;;;;;5.3;2.1;;;;;;;;;;;;;
2019/09/27 02:54:38;;;;;;;5.1;2.3;;;;;;;;;;;;;
2019/09/27 02:57:03;;;;;;;6.4;2.2;;;;;;;;;;;;;
2019/09/27 02:59:28;;;;;;;6;2;;;;;;;;;;;;;
2019/09/27 03:01:53;;;;;;;6.7;2.2;;;;;;;;;;;;;
2019/09/27 03:04:18;;;;;;;5.4;2.1;;;;;;;;;;;;;
2019/09/27 03:06:43;;;;;;;5.9;2.1;;;;;;;;;;;;;
2019/09/27 03:09:08;;;;;;;4.9;1.9;;;;;;;;;;;;;
2019/09/27 03:11:34;;;;;;;6.3;2.2;;;;;;;;;;;;;
2019/09/27 03:13:59;;;;;;;7.3;2;;;;;;;;;;;;;
2019/09/27 03:16:24;;;;;;;5.1;2.2;;;;;;;;;;;;;
2019/09/27 03:18:49;;;;;;;6.3;2.1;;;;;;;;;;;;;
2019/09/27 03:21:14;;;;;;;7.2;1.9;;;;;;;;;;;;;
2019/09/27 03:23:39;;;;;;;6.7;2.2;;;;;;;;;;;;;
2019/09/27 03:26:04;;;;;;;7.8;2.3;;;;;;;;;;;;;
2019/09/27 03:28:29;;;;;;;6;2.4;;;;;;;;;;;;;
2019/09/27 03:30:54;;;;;;;5.9;2.2;;;;;;;;;;;;;
2019/09/27 03:33:19;;;;;;;5.1;2;;;;;;;;;;;;;
2019/09/27 03:35:45;;;;;;;5.6;2.2;;;;;;;;;;;;;
2019/09/27 03:38:10;;;;;;;6.3;2.4;;;;;;;;;;;;;
2019/09/27 03:40:35;;;;;;;6.7;2.3;;;;;;;;;;;;;
2019/09/27 03:43:00;;;;;;;6.1;2.3;;;;;;;;;;;;;
2019/09/27 03:45:25;;;;;;;4.8;1.9;;;;;;;;;;;;;
2019/09/27 03:47:50;;;;;;;6.8;2.2;;;;;;;;;;;;;
2019/09/27 03:50:15;;;;;;;5.7;1.9;;;;;;;;;;;;;
2019/09/27 03:52:41;;;;;;;8.3;2.4;;;;;;;;;;;;;
2019/09/27 03:55:06;;;;;;;6.9;2.2;;;;;;;;;;;;;
2019/09/27 03:57:31;;;;;;;5.5;2.1;;;;;;;;;;;;;
2019/09/27 03:59:56;;;;;;;6.6;2.4;;;;;;;;;;;;;
2019/09/27 04:02:28;;;;;;;5.1;2;;;;;;;16.15;87.7002;959.5096;;;;
2019/09/27 04:04:53;;;;;;;6.4;2.4;;;;;;;16.12;86.99609;959.5181;;;;
2019/09/27 04:07:19;;;;;;;5.9;2.2;;;;;;;16.17;86.21387;959.5095;;;;
2019/09/27 04:09:44;;;;;;;5.5;1.8;;;;;;;16.22;85.99902;959.4718;;;;
2019/09/27 04:12:09;;;;;;;4.5;2.1;;;;;;;16.17;86.16504;959.5129;;;;
2019/09/27 04:14:34;;;;;;;5.5;2.3;;;;;;;16.17;86.41016;959.5162;;;;
2019/09/27 04:16:59;;;;;;;5.7;2;;;;;;;16.22;87.09473;959.5581;;;;
2019/09/27 04:19:24;;;;;;;4.3;1.9;;;;;;;16.35;85.79199;959.4637;;;;
2019/09/27 04:21:49;;;;;;;5.6;1.9;;;;;;;16.29;87.29785;959.4072;;;;
2019/09/27 04:24:14;;;;;;;4.8;2;;;;;;;16.23;87.41309;959.4774;;;;
2019/09/27 04:26:39;;;;;;;4.6;2;;;;;;;16.13;88.22168;959.4589;;;;
2019/09/27 04:29:04;;;;;;;6.3;2;;;;;;;16.06;89.05762;959.4419;;;;
2019/09/27 04:31:30;;;;;;;4.6;1.9;;;;;;;16.12;88.21777;959.4267;;;;
2019/09/27 04:33:55;;;;;;;5;2.3;;;;;;;16.1;87.72656;959.3611;;;;
2019/09/27 04:36:20;;;;;;;5.6;2.2;;;;;;;16.03;89.16699;959.3422;;;;
2019/09/27 04:38:46;;;;;;;5.6;2.2;;;;;;;16;88.78906;959.2717;;;;
2019/09/27 04:41:11;;;;;;;5.7;2.1;;;;;;;15.94;88.96387;959.3186;;;;
2019/09/27 04:43:37;;;;;;;5.1;2;;;;;;;15.94;89.83594;959.2644;;;;
2019/09/27 04:46:02;;;;;;;6.2;2.1;;;;;;;15.96;88.875;959.2586;;;;
2019/09/27 04:48:52;;;;;;;7.5;2.2;;;;;;;15.92;88.71387;959.2852;;;;
2019/09/27 04:50:52;;;;;;;7.4;2.4;;;;;;;15.9;89.70117;959.2595;;;;
2019/09/27 04:53:17;;;;;;;4.9;2.1;;;;;;;15.82;90.7207;959.2466;;;;
2019/09/27 04:55:43;;;;;;;5.8;2;;;;;;;15.81;90.21875;959.2795;;;;
2019/09/27 04:58:08;;;;;;;8.8;2.5;;;;;;;15.82;89.53516;959.3174;;;;
2019/09/27 05:00:33;;;;;;;5;2.2;;;;;;;15.79;89.96973;959.3188;;;;
2019/09/27 05:02:58;;;;;;;5.4;2.2;;;;;;;15.82;90.08203;959.3591;;;;
2019/09/27 05:05:23;;;;;;;8.4;2.9;;;;;;;15.79;90.22461;959.3262;;;;
2019/09/27 05:07:48;;;;;;;7;2.2;;;;;;;15.87;89.15918;959.3262;;;;
2019/09/27 05:10:13;;;;;;;6.1;2.1;;;;;;;15.83;88.48633;959.3658;;;;
2019/09/27 05:12:38;;;;;;;6.6;2.1;;;;;;;15.84;89.43164;959.3895;;;;
2019/09/27 05:15:03;;;;;;;5.6;2.1;;;;;;;;;;;;;
2019/09/27 05:17:28;;;;;;;5.8;2.3;;;;;;;;;;;;;
2019/09/27 05:19:53;;;;;;;6.2;2.3;;;;;;;;;;;;;
2019/09/27 05:22:18;;;;;;;5.3;2.1;;;;;;;;;;;;;
2019/09/27 05:24:43;;;;;;;6;2.2;;;;;;;;;;;;;
2019/09/27 05:27:09;;;;;;;6.2;2;;;;;;;;;;;;;
2019/09/27 05:29:34;;;;;;;4.8;1.9;;;;;;;;;;;;;
2019/09/27 05:31:59;;;;;;;5.7;2;;;;;;;;;;;;;
2019/09/27 05:34:24;;;;;;;5.5;2.1;;;;;;;;;;;;;
2019/09/27 05:36:49;;;;;;;4.3;2.1;;;;;;;;;;;;;
2019/09/27 05:39:14;;;;;;;4.1;2;;;;;;;;;;;;;
2019/09/27 05:41:39;;;;;;;6.1;2.1;;;;;;;;;;;;;
2019/09/27 05:44:04;;;;;;;3.5;2.1;;;;;;;;;;;;;
2019/09/27 05:46:30;;;;;;;6.5;2.2;;;;;;;;;;;;;
2019/09/27 05:48:55;;;;;;;5.4;2.4;;;;;;;;;;;;;
2019/09/27 05:51:20;;;;;;;5.5;2.2;;;;;;;;;;;;;
2019/09/27 05:53:45;;;;;;;5.3;2.1;;;;;;;;;;;;;
2019/09/27 05:56:10;;;;;;;5.2;2.1;;;;;;;;;;;;;
2019/09/27 05:58:35;;;;;;;4.8;2.4;;;;;;;;;;;;;
2019/09/27 06:01:00;;;;;;;6.6;2.5;;;;;;;;;;;;;
2019/09/27 06:03:25;;;;;;;5.3;2.4;;;;;;;;;;;;;
2019/09/27 06:05:50;;;;;;;5.6;2.3;;;;;;;;;;;;;
2019/09/27 06:08:15;;;;;;;4.9;2.2;;;;;;;;;;;;;
2019/09/27 06:10:40;;;;;;;5;2;;;;;;;;;;;;;
2019/09/27 06:13:05;;;;;;;5.4;2.2;;;;;;;;;;;;;
2019/09/27 06:15:30;;;;;;;4.1;2;;;;;;;;;;;;;
2019/09/27 06:17:56;;;;;;;5.6;2;;;;;;;;;;;;;
2019/09/27 06:20:21;;;;;;;5.8;2.4;;;;;;;;;;;;;
2019/09/27 06:22:46;;;;;;;7.6;2.3;;;;;;;;;;;;;
2019/09/27 06:25:12;;;;;;;3.6;1.9;;;;;;;;;;;;;
2019/09/27 06:27:37;;;;;;;5.3;2.1;;;;;;;;;;;;;
2019/09/27 06:30:02;;;;;;;8.4;2.3;;;;;;;;;;;;;
2019/09/27 06:32:27;;;;;;;5.5;2.1;;;;;;;;;;;;;
2019/09/27 06:34:52;;;;;;;5.7;2;;;;;;;;;;;;;
2019/09/27 06:37:17;;;;;;;5.2;2;;;;;;;;;;;;;
2019/09/27 06:39:42;;;;;;;6.3;2.2;;;;;;;;;;;;;
2019/09/27 06:42:07;;;;;;;6.1;2;;;;;;;;;;;;;
2019/09/27 06:44:32;;;;;;;8.4;2.8;;;;;;;;;;;;;
2019/09/27 06:46:58;;;;;;;6.3;2.1;;;;;;;;;;;;;
2019/09/27 06:49:23;;;;;;;6.3;2.5;;;;;;;;;;;;;
2019/09/27 06:51:48;;;;;;;7.7;2.8;;;;;;;;;;;;;
2019/09/27 06:54:13;;;;;;;7.3;2.4;;;;;;;;;;;;;
2019/09/27 06:56:38;;;;;;;6.1;2.4;;;;;;;;;;;;;
2019/09/27 06:59:03;;;;;;;6.5;2.3;;;;;;;;;;;;;
2019/09/27 07:01:28;;;;;;;7;2.2;;;;;;;;;;;;;
2019/09/27 07:03:53;;;;;;;5.8;2.1;;;;;;;;;;;;;
2019/09/27 07:06:18;;;;;;;5.2;2.1;;;;;;;;;;;;;
2019/09/27 07:08:43;;;;;;;5.9;2.2;;;;;;;;;;;;;
2019/09/27 07:11:08;;;;;;;5.6;2.2;;;;;;;;;;;;;
2019/09/27 07:13:33;;;;;;;4.7;2.1;;;;;;;;;;;;;
2019/09/27 07:15:58;;;;;;;6.7;2.7;;;;;;;;;;;;;
2019/09/27 07:18:23;;;;;;;6.8;2.4;;;;;;;;;;;;;
2019/09/27 07:20:48;;;;;;;6.1;2.4;;;;;;;;;;;;;
2019/09/27 07:23:14;;;;;;;7.7;2.4;;;;;;;;;;;;;
2019/09/27 07:25:39;;;;;;;7.3;2.1;;;;;;;;;;;;;
2019/09/27 07:28:04;;;;;;;7;2.2;;;;;;;;;;;;;
2019/09/27 07:30:29;;;;;;;9.3;2.5;;;;;;;;;;;;;
2019/09/27 07:32:54;;;;;;;6.9;2.3;;;;;;;;;;;;;
2019/09/27 07:35:19;;;;;;;5.6;2.1;;;;;;;;;;;;;
2019/09/27 07:37:44;;;;;;;5.4;2.2;;;;;;;;;;;;;
2019/09/27 07:40:09;;;;;;;5.8;2.1;;;;;;;;;;;;;
2019/09/27 07:42:34;;;;;;;6.8;2.6;;;;;;;;;;;;;
2019/09/27 07:44:59;;;;;;;9.1;2.8;;;;;;;;;;;;;
2019/09/27 07:47:24;;;;;;;5.6;1.9;;;;;;;;;;;;;
2019/09/27 07:49:50;;;;;;;7.9;2.3;;;;;;;;;;;;;
2019/09/27 07:52:15;;;;;;;8.5;2.3;;;;;;;;;;;;;
2019/09/27 07:54:40;;;;;;;7.1;2.2;;;;;;;;;;;;;
2019/09/27 07:57:05;;;;;;;9;2.6;;;;;;;;;;;;;
2019/09/27 07:59:30;;;;;;;8.9;2.4;;;;;;;;;;;;;
2019/09/27 08:01:55;;;;;;;7.3;2.2;;;;;;;;;;;;;
2019/09/27 08:04:20;;;;;;;8.5;2.4;;;;;;;;;;;;;
2019/09/27 08:06:45;;;;;;;5.3;1.8;;;;;;;;;;;;;
2019/09/27 08:09:11;;;;;;;5.5;2;;;;;;;;;;;;;
2019/09/27 08:11:36;;;;;;;6.1;2.3;;;;;;;;;;;;;
2019/09/27 08:14:01;;;;;;;6.9;2.3;;;;;;;;;;;;;
2019/09/27 08:16:26;;;;;;;8.6;2.7;;;;;;;;;;;;;
2019/09/27 08:18:51;;;;;;;6.3;2.2;;;;;;;;;;;;;
2019/09/27 08:21:16;;;;;;;6.9;2.5;;;;;;;;;;;;;
2019/09/27 08:23:41;;;;;;;6.4;2.2;;;;;;;;;;;;;
2019/09/27 08:26:06;;;;;;;6.1;2.4;;;;;;;;;;;;;
2019/09/27 08:28:31;;;;;;;6.4;2.1;;;;;;;;;;;;;
2019/09/27 08:30:57;;;;;;;7.6;2.4;;;;;;;;;;;;;
2019/09/27 08:33:22;;;;;;;8.4;2.4;;;;;;;;;;;;;
2019/09/27 08:35:47;;;;;;;9.4;2.6;;;;;;;;;;;;;
2019/09/27 08:38:12;;;;;;;8.5;2.5;;;;;;;;;;;;;
2019/09/27 08:40:37;;;;;;;7.2;2.6;;;;;;;;;;;;;
2019/09/27 08:43:02;;;;;;;7.9;2.8;;;;;;;;;;;;;
2019/09/27 08:45:27;;;;;;;8.3;2.7;;;;;;;;;;;;;
2019/09/27 08:47:52;;;;;;;9.2;2.5;;;;;;;;;;;;;
2019/09/27 08:50:18;;;;;;;11.5;3.8;;;;;;;;;;;;;
2019/09/27 08:52:43;;;;;;;8.4;3;;;;;;;;;;;;;
2019/09/27 08:55:08;;;;;;;9.5;3;;;;;;;;;;;;;
2019/09/27 08:57:33;;;;;;;8.5;2.5;;;;;;;;;;;;;
2019/09/27 08:59:58;;;;;;;9.4;2.8;;;;;;;;;;;;;
2019/09/27 09:02:23;;;;;;;10.3;2.9;;;;;;;;;;;;;
2019/09/27 09:04:48;;;;;;;8.2;2.9;;;;;;;;;;;;;
2019/09/27 09:07:13;;;;;;;9.4;3.2;;;;;;;;;;;;;
2019/09/27 09:09:38;;;;;;;13;3.3;;;;;;;;;;;;;
2019/09/27 09:12:03;;;;;;;10.7;3.4;;;;;;;;;;;;;
2019/09/27 09:14:28;;;;;;;12.3;3.4;;;;;;;;;;;;;
2019/09/27 09:16:54;;;;;;;9.2;3.4;;;;;;;;;;;;;
2019/09/27 09:19:19;;;;;;;10.2;3.3;;;;;;;;;;;;;
2019/09/27 09:21:44;;;;;;;11;3.6;;;;;;;;;;;;;
2019/09/27 09:24:09;;;;;;;11.4;3;;;;;;;;;;;;;
2019/09/27 09:26:34;;;;;;;11.7;3.3;;;;;;;;;;;;;
2019/09/27 09:28:59;;;;;;;8.7;2.7;;;;;;;;;;;;;
2019/09/27 09:31:24;;;;;;;9.8;3.1;;;;;;;;;;;;;
2019/09/27 09:33:49;;;;;;;10.2;3;;;;;;;;;;;;;
2019/09/27 09:36:14;;;;;;;9.3;2.5;;;;;;;;;;;;;
2019/09/27 09:38:40;;;;;;;10.6;3.4;;;;;;;;;;;;;
2019/09/27 09:41:05;;;;;;;9.8;3.3;;;;;;;;;;;;;
2019/09/27 09:43:30;;;;;;;10.6;3;;;;;;;;;;;;;
2019/09/27 09:45:55;;;;;;;12.3;4.3;;;;;;;;;;;;;
2019/09/27 09:48:20;;;;;;;9.7;3.4;;;;;;;;;;;;;
2019/09/27 09:50:45;;;;;;;10.6;3.6;;;;;;;;;;;;;
2019/09/27 09:53:10;;;;;;;12.1;3.6;;;;;;;;;;;;;
2019/09/27 09:55:35;;;;;;;9.6;3.4;;;;;;;;;;;;;
2019/09/27 09:58:00;;;;;;;7.1;2.9;;;;;;;;;;;;;
2019/09/27 10:00:25;;;;;;;9.4;2.7;;;;;;;;;;;;;
2019/09/27 10:02:50;;;;;;;11.9;3.2;;;;;;;;;;;;;
2019/09/27 10:05:16;;;;;;;8.6;3.8;;;;;;;;;;;;;
2019/09/27 10:07:41;;;;;;;10.5;3.8;;;;;;;;;;;;;
2019/09/27 10:10:06;;;;;;;10.9;4.2;;;;;;;;;;;;;
2019/09/27 10:12:31;;;;;;;11.3;3.2;;;;;;;;;;;;;
2019/09/27 10:14:56;;;;;;;9.8;3.2;;;;;;;;;;;;;
2019/09/27 10:17:21;;;;;;;9;2.5;;;;;;;;;;;;;
2019/09/27 10:19:46;;;;;;;10.3;2.6;;;;;;;;;;;;;
2019/09/27 10:22:11;;;;;;;8.7;2.3;;;;;;;;;;;;;
2019/09/27 10:24:36;;;;;;;8.6;3.4;;;;;;;;;;;;;
2019/09/27 10:27:01;;;;;;;9.1;3;;;;;;;;;;;;;
2019/09/27 10:29:27;;;;;;;8.7;3.4;;;;;;;;;;;;;
2019/09/27 10:31:52;;;;;;;8.4;3.4;;;;;;;;;;;;;
2019/09/27 10:34:17;;;;;;;8.7;3;;;;;;;;;;;;;
2019/09/27 10:36:42;;;;;;;9.1;2.7;;;;;;;;;;;;;
2019/09/27 10:39:07;;;;;;;6.7;2.5;;;;;;;;;;;;;
2019/09/27 10:41:32;;;;;;;9.5;3;;;;;;;;;;;;;
2019/09/27 10:43:57;;;;;;;7.5;2.6;;;;;;;;;;;;;
2019/09/27 10:46:22;;;;;;;6.4;2.1;;;;;;;;;;;;;
2019/09/27 10:48:47;;;;;;;7.5;2.7;;;;;;;;;;;;;
2019/09/27 10:51:12;;;;;;;6.8;2.6;;;;;;;;;;;;;
2019/09/27 10:53:37;;;;;;;7.2;3.2;;;;;;;;;;;;;
2019/09/27 10:56:02;;;;;;;7.3;2.3;;;;;;;;;;;;;
2019/09/27 10:58:27;;;;;;;6;2.4;;;;;;;;;;;;;
2019/09/27 11:00:53;;;;;;;7.6;3;;;;;;;;;;;;;
2019/09/27 11:03:18;;;;;;;8.3;2.1;;;;;;;;;;;;;
2019/09/27 11:05:43;;;;;;;7.2;2.2;;;;;;;;;;;;;
2019/09/27 11:08:08;;;;;;;7.4;2.4;;;;;;;;;;;;;
2019/09/27 11:10:33;;;;;;;6.3;2.1;;;;;;;;;;;;;
2019/09/27 11:12:58;;;;;;;6.5;2.1;;;;;;;;;;;;;
2019/09/27 11:15:23;;;;;;;4.9;1.7;;;;;;;;;;;;;
2019/09/27 11:17:48;;;;;;;6.5;2;;;;;;;;;;;;;
2019/09/27 11:20:13;;;;;;;5.5;1.8;;;;;;;;;;;;;
2019/09/27 11:22:39;;;;;;;5.3;1.8;;;;;;;;;;;;;
2019/09/27 11:25:04;;;;;;;4.5;1.9;;;;;;;;;;;;;
2019/09/27 11:27:29;;;;;;;5.7;2.1;;;;;;;;;;;;;
2019/09/27 11:29:54;;;;;;;4.6;2.2;;;;;;;;;;;;;
2019/09/27 11:32:19;;;;;;;5.4;2.4;;;;;;;;;;;;;
2019/09/27 11:34:44;;;;;;;5.9;2.1;;;;;;;;;;;;;
2019/09/27 11:37:09;;;;;;;5.6;1.7;;;;;;;;;;;;;
2019/09/27 11:39:34;;;;;;;5.5;2.1;;;;;;;;;;;;;
2019/09/27 11:42:00;;;;;;;6;2.2;;;;;;;;;;;;;
2019/09/27 11:44:25;;;;;;;6.1;2.3;;;;;;;;;;;;;
2019/09/27 11:46:50;;;;;;;4.8;1.9;;;;;;;;;;;;;
2019/09/27 11:49:15;;;;;;;6.3;1.8;;;;;;;;;;;;;
2019/09/27 11:51:40;;;;;;;6.7;1.9;;;;;;;;;;;;;
2019/09/27 11:54:05;;;;;;;4.3;2;;;;;;;;;;;;;
2019/09/27 11:56:30;;;;;;;5.9;3.1;;;;;;;;;;;;;
2019/09/27 11:58:55;;;;;;;5;2.6;;;;;;;;;;;;;
2019/09/27 12:01:21;;;;;;;6.6;2.7;;;;;;;;;;;;;
2019/09/27 12:03:45;;;;;;;6.1;2.8;;;;;;;;;;;;;
2019/09/27 12:06:10;;;;;;;6;2.4;;;;;;;;;;;;;
2019/09/27 12:08:35;;;;;;;5.5;1.9;;;;;;;;;;;;;
2019/09/27 12:11:01;;;;;;;5.7;2;;;;;;;;;;;;;
2019/09/27 12:13:26;;;;;;;4.8;1.9;;;;;;;;;;;;;
2019/09/27 12:15:51;;;;;;;5.3;1.9;;;;;;;;;;;;;
2019/09/27 12:18:16;;;;;;;6.1;2.1;;;;;;;;;;;;;
2019/09/27 12:20:41;;;;;;;5.7;2.1;;;;;;;;;;;;;
2019/09/27 12:23:06;;;;;;;4.8;1.8;;;;;;;;;;;;;
2019/09/27 12:25:31;;;;;;;5.8;2.1;;;;;;;;;;;;;
2019/09/27 12:27:56;;;;;;;7.6;2.4;;;;;;;;;;;;;
2019/09/27 12:30:21;;;;;;;4.4;2.5;;;;;;;;;;;;;
2019/09/27 12:32:46;;;;;;;6.7;3.5;;;;;;;;;;;;;
2019/09/27 12:35:12;;;;;;;5;2.5;;;;;;;;;;;;;
2019/09/27 12:37:37;;;;;;;9.2;3.8;;;;;;;;;;;;;
2019/09/27 12:40:02;;;;;;;6.8;3.3;;;;;;;;;;;;;
2019/09/27 12:43:46;;;;;;;5.4;2;;;;;;;20.74;62.8916;957.2238;;;;
2019/09/27 12:46:11;;;;;;;5.2;2.4;;;;;;;20.7;63.83984;957.2263;;;;
2019/09/27 12:48:36;;;;;;;5.8;2.7;;;;;;;20.85;63.16797;957.1555;;;;
2019/09/27 12:51:01;;;;;;;5.3;2.6;;;;;;;20.92;63.60156;957.1297;;;;
2019/09/27 12:53:26;;;;;;;5.8;2.1;;;;;;;20.88;62.67676;957.14;;;;
2019/09/27 12:55:51;;;;;;;5.7;2;;;;;;;20.83;63.56543;957.1758;;;;
2019/09/27 12:58:17;;;;;;;6.9;3.8;;;;;;;20.78;63.60547;957.0859;;;;
2019/09/27 13:00:42;;;;;;;7.1;2.3;;;;;;;20.91;62.71582;957.0231;;;;
2019/09/27 13:03:07;;;;;;;7.2;2.6;;;;;;;20.85;62.94336;957.071;;;;
2019/09/27 13:05:32;;;;;;;7.4;3;;;;;;;21;62.84668;957.0664;;;;
2019/09/27 13:07:57;;;;;;;8.8;2.8;;;;;;;21.08;63.37598;957.0212;;;;
2019/09/27 13:10:22;;;;;;;8.3;3.1;;;;;;;21.18;62.24805;957.007;;;;
2019/09/27 13:12:47;;;;;;;7.6;2.6;;;;;;;21.17;62.35254;956.997;;;;
2019/09/27 13:15:12;;;;;;;6;2.8;;;;;;;21.05;62.32227;957.0072;;;;
2019/09/27 13:17:37;;;;;;;13.4;7.8;;;;;;;21.1;61.78711;957.0142;;;;
2019/09/27 13:20:02;;;;;;;10.3;5.4;;;;;;;21.09;62.80078;957.0019;;;;
2019/09/27 13:22:27;;;;;;;8.5;4.8;;;;;;;21;63.23633;957.0358;;;;
2019/09/27 13:24:53;;;;;;;5.5;2.4;;;;;;;21.06;63.12598;956.9844;;;;
2019/09/27 13:27:17;;;;;;;7.3;3.6;;;;;;;21.1;62.96777;956.9338;;;;
2019/09/27 13:29:43;;;;;;;6.2;3.4;;;;;;;21.22;62.64258;957.0017;;;;
2019/09/27 13:32:08;;;;;;;7.7;2.2;;;;;;;21.3;62.53516;957.0775;;;;
2019/09/27 13:34:33;;;;;;;7.1;2.5;;;;;;;21.2;62.10938;957.0519;;;;
2019/09/27 13:36:58;;;;;;;8.8;2.4;;;;;;;21.18;62.36621;956.9506;;;;
2019/09/27 13:39:24;;;;;;;7;2.1;;;;;;;21.12;62.46191;957.0897;;;;
2019/09/27 13:41:49;;;;;;;4.8;1.9;;;;;;;20.93;62.53125;956.9787;;;;
2019/09/27 13:44:15;;;;;;;5.7;2;;;;;;;20.94;62.21387;956.9055;;;;
2019/09/27 13:46:40;;;;;;;6.6;2.2;;;;;;;20.99;62.16113;956.9514;;;;
2019/09/27 13:49:05;;;;;;;6.4;2;;;;;;;21.07;61.67773;956.9163;;;;
2019/09/27 13:51:30;;;;;;;3.9;1.5;;;;;;;21.17;60.74902;956.8992;;;;
2019/09/27 13:53:56;;;;;;;5.9;2.6;;;;;;;21.15;61.21875;956.9199;;;;
2019/09/27 13:56:21;;;;;;;5.5;2.3;;;;;;;21.02;61.02344;957.0168;;;;
2019/09/27 13:58:47;;;;;;;6.2;2.2;;;;;;;21.01;62.15234;956.9171;;;;
2019/09/27 14:01:12;;;;;;;6;2.3;;;;;;;21.03;62.7793;956.9264;;;;
2019/09/27 14:03:38;;;;;;;4.7;2;;;;;;;20.95;62.50977;956.9551;;;;
2019/09/27 14:06:02;;;;;;;5.1;2;;;;;;;20.93;62.41309;956.9545;;;;
2019/09/27 14:08:28;;;;;;;5;2.2;;;;;;;20.89;62.7959;956.9508;;;;
2019/09/27 14:10:53;;;;;;;5.8;3.2;;;;;;;20.86;63.05078;956.9191;;;;
2019/09/27 14:13:18;;;;;;;6.6;3.5;;;;;;;20.8;63.18359;956.8983;;;;
2019/09/27 14:15:43;;;;;;;5.8;2;;;;;;;20.8;63.08887;956.8381;;;;
2019/09/27 14:18:08;;;;;;;4.9;2.7;;;;;;;20.78;64.02734;956.9038;;;;
2019/09/27 14:20:33;;;;;;;5.7;2.2;;;;;;;20.74;64.01074;956.8427;;;;
2019/09/27 14:22:58;;;;;;;7.4;2.4;;;;;;;20.67;64.03711;956.9348;;;;
2019/09/27 14:25:23;;;;;;;5.8;1.8;;;;;;;20.72;64.00781;956.9575;;;;
2019/09/27 14:27:48;;;;;;;5.4;2.1;;;;;;;20.61;64.47559;957.0719;;;;
2019/09/27 14:32:47;;;;;;;5.3;1.8;;;;;;;20.68;64.85156;957.2957;;;;
2019/09/27 14:35:12;;;;;;;8.1;2.3;;;;;;;20.18;66.77637;957.3475;;;;
2019/09/27 14:37:37;;;;;;;7.2;2;;;;;;;19.68;68.93457;957.3407;;;;
2019/09/27 14:40:02;;;;;;;7.3;2.1;;;;;;;19.38;70.62695;957.3973;;;;
2019/09/27 14:42:27;;;;;;;7.7;2.6;;;;;;;19.28;71.47852;957.3853;;;;
2019/09/27 14:44:52;;;;;;;7.9;2.4;;;;;;;18.95;73.51465;957.5324;;;;
2019/09/27 14:47:17;;;;;;;5.7;2;;;;;;;18.88;74.51074;957.3519;;;;
2019/09/27 14:49:42;;;;;;;6;1.9;;;;;;;18.79;75.42285;957.4864;;;;
2019/09/27 14:52:07;;;;;;;4.2;2.1;;;;;;;18.47;77.26563;957.5795;;;;
2019/09/27 14:54:32;;;;;;;6.5;2.3;;;;;;;18.33;78.3418;957.5047;;;;
2019/09/27 14:56:58;;;;;;;4.7;2;;;;;;;18.24;79.28613;957.5101;;;;
2019/09/27 14:59:23;;;;;;;5.4;2.3;;;;;;;18.02;80.48926;957.5066;;;;
2019/09/27 15:01:49;;;;;;;5.8;2.2;;;;;;;17.95;81.20117;957.5867;;;;
2019/09/27 15:04:13;;;;;;;4.9;2.4;;;;;;;18.03;81.16992;957.5425;;;;
2019/09/27 15:06:39;;;;;;;6.1;2.7;;;;;;;17.96;81.88184;957.6096;;;;
2019/09/27 15:09:07;;;;;;;7.1;2.7;;;;;;;17.84;82.88867;957.5419;;;;
2019/09/27 15:11:30;;;;;;;5.9;2.4;;;;;;;17.77;83.84668;957.6231;;;;
2019/09/27 15:13:55;;;;;;;8.4;3.3;;;;;;;17.81;85.97266;957.7452;;;;
2019/09/27 15:16:20;;;;;;;9.2;4.7;;;;;;;17.75;87.13281;957.9243;;;;
2019/09/27 15:18:45;;;;;;;6.7;2.4;;;;;;;17.5;90.17969;957.9872;;;;
2019/09/27 15:21:10;;;;;;;8.3;3.5;;;;;;;17.23;95.13965;957.8014;;;;
2019/09/27 15:23:35;;;;;;;8.1;3.4;;;;;;;17.14;96.70703;957.9677;;;;
2019/09/27 15:26:00;;;;;;;7.3;3.5;;;;;;;16.83;100;958.0914;;;;
2019/09/27 15:28:25;;;;;;;13.7;4.9;;;;;;;16.66;100;958.3574;;;;
2019/09/27 15:30:50;;;;;;;13.8;4.7;;;;;;;16.62;100;958.1083;;;;
2019/09/27 15:33:15;;;;;;;10.9;4.5;;;;;;;16.52;100;957.9058;;;;
2019/09/27 15:35:40;;;;;;;8;3.9;;;;;;;16.52;100;958.0095;;;;
2019/09/27 15:38:05;;;;;;;8.2;3.8;;;;;;;16.38;100;957.9673;;;;
2019/09/27 15:40:31;;;;;;;6.8;3.2;;;;;;;16.47;100;957.9908;;;;
2019/09/27 15:42:56;;;;;;;8.9;4.2;;;;;;;16.47;100;957.8091;;;;
2019/09/27 15:45:21;;;;;;;7.6;3.7;;;;;;;16.51;100;957.6523;;;;
2019/09/27 15:47:46;;;;;;;9;4.5;;;;;;;16.49;100;957.6872;;;;
2019/09/27 15:50:12;;;;;;;8.3;4.4;;;;;;;16.41;100;957.8472;;;;
2019/09/27 15:52:37;;;;;;;8.7;4.2;;;;;;;16.48;100;957.7964;;;;
2019/09/27 15:55:02;;;;;;;7.9;4.6;;;;;;;16.4;100;957.9411;;;;
2019/09/27 15:57:28;;;;;;;9.3;4.9;;;;;;;16.46;100;958.0214;;;;
2019/09/27 15:59:53;;;;;;;9.4;4.7;;;;;;;16.51;100;957.9847;;;;
2019/09/27 16:02:18;;;;;;;8.3;5.3;;;;;;;16.57;100;957.912;;;;
2019/09/27 16:04:43;;;;;;;7;3.8;;;;;;;16.46;100;957.9531;;;;
2019/09/27 16:07:08;;;;;;;7.4;3.9;;;;;;;16.36;100;957.9913;;;;
2019/09/27 16:09:34;;;;;;;5.9;3.8;;;;;;;16.44;100;958.0025;;;;
2019/09/27 16:11:59;;;;;;;8.4;4;;;;;;;16.45;100;958.0961;;;;
2019/09/27 16:14:25;;;;;;;6.9;4.1;;;;;;;16.46;100;958.1488;;;;
2019/09/27 16:16:50;;;;;;;5.8;3.2;;;;;;;16.26;100;958.0463;;;;
2019/09/27 16:19:15;;;;;;;9.9;3.7;;;;;;;16.27;100;958.0289;;;;
2019/09/27 16:21:40;;;;;;;9.2;4.2;;;;;;;16.23;100;957.9948;;;;
2019/09/27 16:24:05;;;;;;;9.5;4.3;;;;;;;16.23;100;958.118;;;;
2019/09/27 16:26:31;;;;;;;6.9;3.9;;;;;;;16.35;100;958.1133;;;;
2019/09/27 16:30:16;;;;;;;9.4;5.5;;;;;;;16.39;100;958.1236;;;;
2019/09/27 16:32:41;;;;;;;7.3;3.5;;;;;;;16.29;100;958.0592;;;;
2019/09/27 16:35:07;;;;;;;10;5;;;;;;;16.31;100;958.0486;;;;
2019/09/27 16:37:31;;;;;;;8.1;3.6;;;;;;;16.29;100;958.0773;;;;
2019/09/27 16:39:56;;;;;;;7.6;4;;;;;;;16.34;100;958.1429;;;;
2019/09/27 16:42:21;;;;;;;7.7;4.3;;;;;;;16.22;100;958.1027;;;;
2019/09/27 16:44:46;;;;;;;8.6;4.2;;;;;;;16.27;100;958.0939;;;;
2019/09/27 16:47:11;;;;;;;7.4;3.6;;;;;;;16.32;100;958.0591;;;;
2019/09/27 16:49:36;;;;;;;7.7;4;;;;;;;16.25;100;958.1016;;;;
2019/09/27 16:52:02;;;;;;;7.5;4.2;;;;;;;16.22;100;958.1289;;;;
2019/09/27 16:54:27;;;;;;;7;3.8;;;;;;;16.18;100;958.1217;;;;
2019/09/27 16:56:52;;;;;;;7.8;4.1;;;;;;;16.15;100;957.9688;;;;
2019/09/27 16:59:17;;;;;;;7.4;4;;;;;;;16.19;100;958.092;;;;
2019/09/27 17:01:42;;;;;;;7.3;3.7;;;;;;;16.07;100;958.049;;;;
2019/09/27 17:04:07;;;;;;;7.3;3.5;;;;;;;16.07;100;958.133;;;;
2019/09/27 17:06:32;;;;;;;7.5;3.8;;;;;;;16.07;100;958.1633;;;;
2019/09/27 17:08:57;;;;;;;9.2;3.7;;;;;;;16.03;100;958.1633;;;;
2019/09/27 17:11:22;;;;;;;7;3.7;;;;;;;16.06;100;958.1541;;;;
2019/09/27 17:13:47;;;;;;;7.7;3.7;;;;;;;16.09;100;958.2247;;;;
2019/09/27 17:16:13;;;;;;;7.4;3.5;;;;;;;16.14;100;958.3422;;;;
2019/09/27 17:18:38;;;;;;;7.8;3.3;;;;;;;16.05;100;958.3729;;;;
2019/09/27 17:21:03;;;;;;;6.1;3.3;;;;;;;16.07;100;958.3361;;;;
2019/09/27 17:23:28;;;;;;;8;3.3;;;;;;;16.06;100;958.459;;;;
2019/09/27 17:25:54;;;;;;;6.7;2.9;;;;;;;16.02;100;958.253;;;;
2019/09/27 17:28:19;;;;;;;7.2;3.2;;;;;;;16.06;100;958.2758;;;;
2019/09/27 17:30:44;;;;;;;8.2;3.4;;;;;;;16.07;100;958.3155;;;;
2019/09/27 17:33:09;;;;;;;7.9;3.9;;;;;;;16.07;100;958.3887;;;;
2019/09/27 17:35:34;;;;;;;7.6;3.2;;;;;;;16.06;100;958.4172;;;;
2019/09/27 17:37:59;;;;;;;5.7;3.1;;;;;;;16.06;100;958.1632;;;;
2019/09/27 17:40:24;;;;;;;7.6;3.4;;;;;;;15.95;100;958.0447;;;;
2019/09/27 17:42:49;;;;;;;7.2;3.7;;;;;;;16.02;100;958.3541;;;;
2019/09/27 17:45:15;;;;;;;7.5;4.1;;;;;;;16.04;100;958.4906;;;;
2019/09/27 17:47:40;;;;;;;8.5;3.8;;;;;;;16;100;958.5201;;;;
2019/09/27 17:50:05;;;;;;;8.9;3.9;;;;;;;16;100;958.5687;;;;
2019/09/27 17:52:30;;;;;;;7.3;3.8;;;;;;;16.01;100;958.5145;;;;
2019/09/27 17:57:11;;;;;;;8.1;3.5;;;;;;;15.98;100;958.5895;;;;
2019/09/27 17:59:36;;;;;;;7.7;3.6;;;;;;;15.93;100;958.491;;;;
2019/09/27 18:02:01;;;;;;;5;2.7;;;;;;;15.97;100;958.5787;;;;